Time;durP1;ratioP1;P1;durP2;ratioP2;P2;SDS_P1;SDS_P2;PMS_P1;PMS_P2;Temp;Humidity;BMP_temperature;BMP_pressure;BME280_temperature;BME280_humidity;BME280_pressure;Samples;Min_cycle;Max_cycle;Signal;HPM_P1;HPM_P2
2024/03/23 00:01:56;;;;;;;24.25;5.45;;;;;;;11.58;81.71;101257.94;5050549;28;20033;-41
2024/03/23 00:04:22;;;;;;;20.38;5.53;;;;;;;11.77;80.17;101244.31;5052529;28;20028;-40
2024/03/23 00:06:49;;;;;;;22.80;5.55;;;;;;;11.53;81.09;101243.91;5051684;28;20033;-41
2024/03/23 00:09:15;;;;;;;23.90;5.55;;;;;;;11.68;80.73;101248.50;5049261;28;20418;-40
2024/03/23 00:11:42;;;;;;;23.30;5.50;;;;;;;11.70;79.99;101245.06;5050508;28;20457;-43
2024/03/23 00:14:08;;;;;;;27.98;6.25;;;;;;;11.62;80.30;101244.06;5050914;28;20033;-42
2024/03/23 00:16:34;;;;;;;24.80;5.90;;;;;;;11.67;80.50;101247.63;5049866;28;20033;-40
2024/03/23 00:19:02;;;;;;;19.90;5.20;;;;;;;11.84;79.65;101240.06;5048540;28;20029;-40
2024/03/23 00:21:29;;;;;;;21.58;5.57;;;;;;;11.75;80.14;101243.44;5048409;28;20048;-39
2024/03/23 00:23:55;;;;;;;21.40;5.55;;;;;;;11.63;79.96;101248.44;5049570;28;20024;-40
2024/03/23 00:26:22;;;;;;;22.17;5.40;;;;;;;11.71;80.18;101241.56;5049889;28;20037;-41
2024/03/23 00:28:50;;;;;;;23.40;5.60;;;;;;;11.61;80.00;101234.47;5049410;28;20044;-41
2024/03/23 00:31:16;;;;;;;20.83;6.00;;;;;;;11.72;79.57;101235.50;5050303;28;20037;-40
2024/03/23 00:33:43;;;;;;;27.73;5.32;;;;;;;11.64;80.06;101233.66;5071148;22;20040;-44
2024/03/23 00:36:09;;;;;;;31.45;6.15;;;;;;;11.68;79.80;101232.84;5050057;28;20036;-45
2024/03/23 00:38:36;;;;;;;15.27;5.32;;;;;;;11.57;80.03;101230.06;5049716;28;20048;-45
2024/03/23 00:41:03;;;;;;;26.55;5.78;;;;;;;11.56;79.85;101227.44;5049920;28;20094;-45
2024/03/23 00:43:30;;;;;;;18.98;5.47;;;;;;;11.46;79.63;101220.31;5049492;28;20044;-45
2024/03/23 00:45:56;;;;;;;24.17;5.63;;;;;;;11.50;79.88;101216.91;5049317;28;20083;-43
2024/03/23 00:48:22;;;;;;;23.25;5.32;;;;;;;11.52;79.36;101209.97;5052682;28;20033;-44
2024/03/23 00:50:49;;;;;;;16.80;4.78;;;;;;;11.64;78.26;101213.66;5052420;28;20025;-43
2024/03/23 00:53:15;;;;;;;22.17;5.07;;;;;;;11.39;78.81;101204.56;5051855;28;20036;-44
2024/03/23 00:55:43;;;;;;;17.48;4.70;;;;;;;11.34;78.80;101200.13;5051260;28;20029;-47
2024/03/23 00:58:09;;;;;;;21.33;5.05;;;;;;;11.36;78.82;101201.88;5052814;28;20116;-44
2024/03/23 01:00:34;;;;;;;20.10;4.07;;;;;;;11.27;78.46;101196.53;5034228;28;20056;-44
2024/03/23 01:02:59;;;;;;;17.83;3.97;;;;;;;11.10;76.91;101187.53;5051908;28;20049;-44
2024/03/23 01:05:25;;;;;;;18.35;3.17;;;;;;;11.10;75.30;101189.31;5031699;28;20496;-44
2024/03/23 01:07:50;;;;;;;17.48;3.40;;;;;;;10.89;74.56;101189.81;5049874;28;20044;-46
2024/03/23 01:10:15;;;;;;;16.52;3.13;;;;;;;11.32;72.63;101186.16;5049687;28;20127;-43
2024/03/23 01:12:41;;;;;;;10.98;2.53;;;;;;;11.22;72.21;101190.34;5031324;28;20037;-47
2024/03/23 01:15:06;;;;;;;14.65;2.60;;;;;;;11.28;71.49;101184.38;5050048;28;20040;-46
2024/03/23 01:17:31;;;;;;;13.05;2.45;;;;;;;11.33;70.65;101177.50;5050882;28;20261;-44
2024/03/23 01:19:57;;;;;;;17.55;2.70;;;;;;;11.18;70.30;101179.84;5050137;28;20029;-45
2024/03/23 01:22:22;;;;;;;15.73;2.88;;;;;;;11.18;70.42;101178.13;5050020;28;20145;-45
2024/03/23 01:24:47;;;;;;;11.68;2.42;;;;;;;10.98;70.39;101180.41;5050264;28;20041;-46
2024/03/23 01:27:13;;;;;;;14.45;2.50;;;;;;;10.82;71.75;101188.84;5050717;28;20040;-46
2024/03/23 01:29:38;;;;;;;14.13;2.30;;;;;;;10.92;70.72;101177.69;5049404;28;20063;-47
2024/03/23 01:32:04;;;;;;;16.38;2.30;;;;;;;10.92;70.38;101180.31;5049070;28;20029;-45
2024/03/23 01:34:29;;;;;;;14.35;2.20;;;;;;;10.98;70.10;101180.41;5049713;28;20132;-45
2024/03/23 01:36:55;;;;;;;11.02;2.38;;;;;;;10.90;70.18;101184.63;5048996;28;20029;-46
2024/03/23 01:39:20;;;;;;;12.40;2.33;;;;;;;10.91;69.97;101180.31;5049832;28;20459;-47
2024/03/23 01:41:45;;;;;;;15.55;2.78;;;;;;;10.62;70.61;101173.66;5053055;28;20442;-44
2024/03/23 01:44:11;;;;;;;11.23;2.33;;;;;;;10.92;69.61;101174.19;5055381;28;20047;-44
2024/03/23 01:46:37;;;;;;;13.75;2.13;;;;;;;11.14;68.91;101165.88;5055353;28;20370;-45
2024/03/23 01:49:04;;;;;;;13.70;2.40;;;;;;;10.97;68.45;101168.25;5056396;28;20402;-44
2024/03/23 01:51:30;;;;;;;11.00;2.35;;;;;;;11.00;69.09;101159.56;5056194;28;20036;-44
2024/03/23 01:53:57;;;;;;;11.57;2.10;;;;;;;10.92;69.76;101168.97;5054149;28;20037;-45
2024/03/23 01:56:22;;;;;;;13.43;2.20;;;;;;;10.94;69.44;101162.94;5055088;28;20456;-45
2024/03/23 01:58:47;;;;;;;14.15;2.45;;;;;;;10.79;69.86;101167.06;5053368;28;20182;-45
2024/03/23 02:01:13;;;;;;;11.60;2.30;;;;;;;10.81;70.52;101163.59;5055260;28;20041;-44
2024/03/23 02:03:38;;;;;;;13.77;2.03;;;;;;;10.66;70.73;101165.97;5055232;28;20105;-45
2024/03/23 02:06:04;;;;;;;10.65;2.40;;;;;;;10.69;70.29;101157.28;5055486;28;20380;-45
2024/03/23 02:08:30;;;;;;;14.57;2.20;;;;;;;10.72;69.86;101157.34;5055148;28;20391;-46
2024/03/23 02:10:56;;;;;;;14.63;2.40;;;;;;;10.60;70.55;101160.63;5055561;28;20033;-43
2024/03/23 02:13:21;;;;;;;14.52;2.47;;;;;;;10.66;70.31;101152.91;5055120;28;20376;-44
2024/03/23 02:15:47;;;;;;;12.40;2.55;;;;;;;10.51;70.58;101153.50;5054777;28;20568;-43
2024/03/23 02:18:13;;;;;;;19.48;2.70;;;;;;;10.43;70.88;101152.47;5055705;28;20041;-44
2024/03/23 02:20:39;;;;;;;15.20;2.72;;;;;;;10.53;69.99;101149.22;5054938;28;22412;-44
2024/03/23 02:23:08;;;;;;;13.73;2.55;;;;;;;10.47;69.96;101143.91;5054831;28;20033;-46
2024/03/23 02:25:33;;;;;;;11.32;2.25;;;;;;;10.50;70.11;101138.72;5055382;28;20261;-45
2024/03/23 02:27:59;;;;;;;9.75;2.20;;;;;;;10.66;69.60;101137.28;5055028;28;20499;-44
2024/03/23 02:30:25;;;;;;;11.80;2.17;;;;;;;10.60;69.16;101136.28;5053822;28;20047;-44
2024/03/23 02:32:51;;;;;;;15.25;2.50;;;;;;;10.48;69.67;101135.22;5052458;28;20036;-44
2024/03/23 02:35:16;;;;;;;11.52;2.60;;;;;;;10.52;70.10;101130.94;5054986;28;20151;-43
2024/03/23 02:37:41;;;;;;;13.57;2.33;;;;;;;10.54;69.23;101134.47;5054629;28;20039;-45
2024/03/23 02:40:07;;;;;;;14.13;2.20;;;;;;;10.75;68.74;101126.09;5037423;28;20061;-45
2024/03/23 02:42:32;;;;;;;19.45;2.10;;;;;;;10.62;68.57;101129.34;5052542;28;20037;-46
2024/03/23 02:44:58;;;;;;;18.10;2.50;;;;;;;10.65;68.44;101113.78;5052378;28;20350;-44
2024/03/23 02:47:23;;;;;;;14.48;2.97;;;;;;;10.46;68.73;101117.78;5053222;28;20041;-44
2024/03/23 02:49:49;;;;;;;9.70;2.13;;;;;;;10.40;68.86;101118.56;5054076;28;20040;-45
2024/03/23 02:52:14;;;;;;;16.20;2.28;;;;;;;10.29;68.59;101121.84;5054405;28;20049;-45
2024/03/23 02:54:42;;;;;;;11.95;1.98;;;;;;;10.59;67.74;101117.16;5054325;28;20033;-45
2024/03/23 02:57:07;;;;;;;10.55;2.22;;;;;;;10.76;67.19;101107.00;5052934;28;20553;-46
2024/03/23 02:59:32;;;;;;;8.80;1.95;;;;;;;10.42;68.19;101114.25;5052499;28;20029;-45
2024/03/23 03:01:59;;;;;;;15.38;2.25;;;;;;;10.63;67.34;101118.06;5051430;28;20052;-46
2024/03/23 03:04:25;;;;;;;17.50;2.17;;;;;;;10.64;67.56;101120.72;5051914;28;20037;-44
2024/03/23 03:06:50;;;;;;;10.90;1.63;;;;;;;10.76;67.17;101112.22;5053650;28;20120;-43
2024/03/23 03:09:15;;;;;;;9.48;1.95;;;;;;;10.82;66.69;101107.09;5054805;28;20078;-44
2024/03/23 03:11:41;;;;;;;13.23;2.05;;;;;;;10.69;67.41;101112.97;5051674;28;20548;-45
2024/03/23 03:14:07;;;;;;;13.05;1.70;;;;;;;10.59;67.49;101106.72;5051221;28;20029;-47
2024/03/23 03:16:33;;;;;;;14.88;1.98;;;;;;;10.74;67.32;101106.09;5051340;28;20044;-45
2024/03/23 03:18:58;;;;;;;12.13;2.25;;;;;;;10.60;67.58;101105.00;5051292;28;20372;-46
2024/03/23 03:21:24;;;;;;;12.98;1.75;;;;;;;10.41;67.66;101103.81;5051858;28;20329;-44
2024/03/23 03:23:50;;;;;;;10.80;1.88;;;;;;;10.72;67.33;101100.00;5050737;28;20111;-45
2024/03/23 03:26:18;;;;;;;11.10;1.85;;;;;;;10.67;67.21;101109.47;5051513;28;20491;-45
2024/03/23 03:28:48;;;;;;;8.70;1.80;;;;;;;10.50;67.39;101110.03;5052133;28;20037;-45
2024/03/23 03:31:14;;;;;;;16.70;2.10;;;;;;;10.54;67.08;101114.47;5052401;28;20041;-43
2024/03/23 03:33:39;;;;;;;15.00;2.03;;;;;;;10.66;65.85;101105.09;5050414;28;20407;-43
2024/03/23 03:36:05;;;;;;;9.45;1.75;;;;;;;10.54;66.06;101105.78;5042125;28;20107;-44
2024/03/23 03:38:30;;;;;;;7.82;1.65;;;;;;;11.04;63.84;101103.97;5031430;28;20056;-44
2024/03/23 03:40:55;;;;;;;10.05;2.03;;;;;;;10.75;65.25;101084.38;5031074;28;20372;-45
2024/03/23 03:43:21;;;;;;;9.50;2.05;;;;;;;10.54;65.59;101091.03;5030868;28;20104;-43
2024/03/23 03:45:57;;;;;;;13.68;2.05;;;;;;;10.46;66.00;101099.53;5031320;28;20407;-45
2024/03/23 03:48:23;;;;;;;10.35;2.00;;;;;;;10.57;65.15;101090.19;5031359;28;20429;-45
2024/03/23 03:50:49;;;;;;;15.40;2.17;;;;;;;10.21;67.19;101093.00;5030877;28;20117;-46
2024/03/23 03:53:14;;;;;;;13.65;2.20;;;;;;;10.29;67.17;101083.63;5030333;28;20021;-44
2024/03/23 03:55:40;;;;;;;9.25;1.98;;;;;;;10.60;65.26;101085.03;5030687;28;20096;-43
2024/03/23 03:58:05;;;;;;;9.82;1.92;;;;;;;10.36;66.35;101082.00;5031235;28;20037;-45
2024/03/23 04:00:31;;;;;;;13.35;2.55;;;;;;;10.28;66.47;101083.59;5030970;28;20159;-44
2024/03/23 04:02:57;;;;;;;12.80;2.13;;;;;;;10.39;65.80;101072.50;5030292;28;20030;-43
2024/03/23 04:05:22;;;;;;;10.23;2.03;;;;;;;10.58;64.98;101076.28;5029997;28;20076;-47
2024/03/23 04:07:48;;;;;;;13.80;1.80;;;;;;;10.69;65.08;101064.31;5030402;28;20034;-45
2024/03/23 04:10:14;;;;;;;10.25;1.60;;;;;;;10.69;65.27;101074.72;5030758;28;20040;-45
2024/03/23 04:12:40;;;;;;;10.07;1.80;;;;;;;10.25;66.58;101070.47;5030144;28;20588;-45
2024/03/23 04:15:06;;;;;;;10.32;2.00;;;;;;;10.54;65.83;101064.94;5030349;28;20135;-44
2024/03/23 04:17:33;;;;;;;10.32;1.90;;;;;;;10.55;66.75;101063.22;5030466;28;20065;-43
2024/03/23 04:19:59;;;;;;;11.30;1.90;;;;;;;10.57;66.19;101070.19;5030306;28;20022;-45
2024/03/23 04:22:26;;;;;;;12.30;2.10;;;;;;;10.18;67.91;101068.66;5029918;28;20041;-44
2024/03/23 04:24:56;;;;;;;13.00;2.00;;;;;;;10.38;67.81;101062.03;5029625;28;20034;-46
2024/03/23 04:27:21;;;;;;;18.35;2.22;;;;;;;10.39;67.73;101069.88;5030250;28;20173;-44
2024/03/23 04:29:50;;;;;;;14.27;2.55;;;;;;;10.25;68.13;101068.75;5029913;28;20151;-46
2024/03/23 04:32:16;;;;;;;10.27;2.10;;;;;;;10.31;67.61;101070.59;5029837;28;20041;-45
2024/03/23 04:34:43;;;;;;;10.57;2.00;;;;;;;10.16;68.81;101071.19;5029483;28;20120;-44
2024/03/23 04:37:08;;;;;;;11.95;2.25;;;;;;;10.43;67.33;101068.22;5012287;28;20530;-44
2024/03/23 04:39:34;;;;;;;7.25;1.92;;;;;;;10.27;67.76;101064.47;5029792;28;20120;-45
2024/03/23 04:42:01;;;;;;;12.15;2.33;;;;;;;10.38;67.83;101067.25;5030078;28;20504;-44
2024/03/23 04:44:26;;;;;;;15.32;2.38;;;;;;;10.03;68.87;101064.88;5030194;28;20042;-45
2024/03/23 04:46:51;;;;;;;9.45;2.40;;;;;;;10.43;67.36;101068.22;5030135;28;20518;-45
2024/03/23 04:49:16;;;;;;;8.88;2.20;;;;;;;10.08;68.72;101065.81;5031853;28;20121;-45
2024/03/23 04:51:45;;;;;;;12.27;2.92;;;;;;;10.21;68.39;101060.88;5032262;28;20038;-46
2024/03/23 04:54:14;;;;;;;13.48;2.30;;;;;;;10.32;69.04;101067.16;5030175;28;20022;-44
2024/03/23 04:56:39;;;;;;;13.13;2.50;;;;;;;10.43;68.86;101066.47;5029869;28;20033;-46
2024/03/23 04:59:05;;;;;;;10.50;2.53;;;;;;;10.61;68.48;101063.31;5030697;28;20049;-44
2024/03/23 05:01:33;;;;;;;14.25;2.72;;;;;;;10.51;68.78;101070.09;5031110;28;20045;-45
2024/03/23 05:03:58;;;;;;;16.02;2.83;;;;;;;10.51;69.25;101066.59;5029182;28;20025;-45
2024/03/23 05:06:25;;;;;;;12.57;2.50;;;;;;;10.56;68.94;101067.56;5029548;28;20037;-44
2024/03/23 05:08:51;;;;;;;10.52;2.78;;;;;;;10.39;68.87;101077.72;5029385;28;20033;-44
2024/03/23 05:11:16;;;;;;;18.05;2.70;;;;;;;10.73;67.91;101068.72;5029687;28;20041;-46
2024/03/23 05:13:42;;;;;;;13.95;3.13;;;;;;;10.20;69.51;101070.41;5029540;28;20041;-45
2024/03/23 05:16:08;;;;;;;14.07;3.13;;;;;;;10.42;68.39;101069.06;5034435;28;20077;-45
2024/03/23 05:18:33;;;;;;;12.43;2.85;;;;;;;10.15;68.46;101059.88;5036619;28;20045;-44
2024/03/23 05:20:59;;;;;;;10.45;2.40;;;;;;;10.35;67.76;101062.00;5026264;28;20033;-45
2024/03/23 05:23:25;;;;;;;13.98;3.08;;;;;;;10.53;67.01;101068.41;5033484;28;20417;-43
2024/03/23 05:25:51;;;;;;;11.63;3.00;;;;;;;10.46;67.48;101069.16;5033444;28;20029;-43
2024/03/23 05:28:17;;;;;;;11.20;2.45;;;;;;;10.35;67.68;101072.44;5033695;28;20037;-44
2024/03/23 05:30:43;;;;;;;12.70;2.38;;;;;;;10.59;66.92;101072.84;5033373;28;20033;-45
2024/03/23 05:33:08;;;;;;;15.15;2.72;;;;;;;10.60;67.08;101064.16;5033424;28;20094;-44
2024/03/23 05:35:33;;;;;;;12.05;2.70;;;;;;;10.43;68.42;101063.88;5032897;28;20072;-49
2024/03/23 05:37:59;;;;;;;13.10;2.83;;;;;;;10.30;68.75;101066.25;5033627;28;20122;-45
2024/03/23 05:40:26;;;;;;;12.23;3.30;;;;;;;10.25;69.10;101073.97;5033624;28;20061;-46
2024/03/23 05:42:55;;;;;;;12.93;3.03;;;;;;;9.70;71.20;101072.00;5032929;28;20063;-44
2024/03/23 05:45:22;;;;;;;14.25;3.40;;;;;;;10.37;69.28;101071.59;5033314;28;20045;-44
2024/03/23 05:47:48;;;;;;;15.10;3.40;;;;;;;10.56;68.18;101070.16;5033341;28;20455;-45
2024/03/23 05:50:13;;;;;;;14.38;3.10;;;;;;;9.99;69.08;101062.19;5035253;28;20029;-44
2024/03/23 05:52:39;;;;;;;17.88;3.33;;;;;;;9.93;68.27;101069.88;5034681;28;20041;-45
2024/03/23 05:55:05;;;;;;;13.90;3.70;;;;;;;9.87;68.34;101068.03;5034401;28;20033;-44
2024/03/23 05:57:30;;;;;;;8.93;3.15;;;;;;;9.98;68.13;101061.31;5018060;28;20113;-45
2024/03/23 05:59:56;;;;;;;15.23;3.30;;;;;;;10.18;67.83;101068.66;5035499;28;20064;-45
2024/03/23 06:02:22;;;;;;;12.70;3.20;;;;;;;10.01;68.86;101065.69;5035456;28;20504;-45
2024/03/23 06:04:47;;;;;;;16.35;2.97;;;;;;;10.04;69.04;101061.41;5034146;28;20030;-44
2024/03/23 06:07:13;;;;;;;14.25;2.72;;;;;;;9.88;68.72;101056.75;5033663;28;20403;-44
2024/03/23 06:09:40;;;;;;;12.02;2.67;;;;;;;10.13;68.79;101058.09;5032942;28;20049;-44
2024/03/23 06:12:05;;;;;;;16.35;3.03;;;;;;;10.06;69.23;101058.84;5033208;28;20055;-46
2024/03/23 06:14:31;;;;;;;14.20;2.60;;;;;;;10.35;67.71;101055.06;5032816;28;20037;-44
2024/03/23 06:16:56;;;;;;;18.38;3.60;;;;;;;10.25;68.32;101066.16;5032356;28;20029;-46
2024/03/23 06:19:21;;;;;;;14.30;2.45;;;;;;;10.31;68.41;101066.25;5033014;28;20037;-45
2024/03/23 06:21:47;;;;;;;12.35;2.70;;;;;;;10.30;68.53;101059.31;5032222;28;20049;-44
2024/03/23 06:24:12;;;;;;;16.20;2.60;;;;;;;10.77;66.94;101062.69;5031971;28;20038;-44
2024/03/23 06:26:38;;;;;;;8.93;2.42;;;;;;;10.63;67.27;101056.38;5032079;28;20061;-45
2024/03/23 06:29:04;;;;;;;11.45;2.67;;;;;;;10.65;67.03;101075.53;5032316;28;20029;-46
2024/03/23 06:31:30;;;;;;;11.38;2.50;;;;;;;10.73;67.14;101065.25;5033102;28;20033;-44
2024/03/23 06:33:55;;;;;;;14.23;2.65;;;;;;;10.69;66.72;101066.91;5034778;28;20067;-45
2024/03/23 06:36:21;;;;;;;14.40;2.67;;;;;;;10.42;67.54;101064.75;5034861;28;20079;-46
2024/03/23 06:38:47;;;;;;;13.90;2.45;;;;;;;10.66;65.86;101068.59;5034507;28;20042;-48
2024/03/23 06:41:12;;;;;;;15.57;2.50;;;;;;;11.49;64.25;101064.59;5034652;28;20113;-44
2024/03/23 06:43:37;;;;;;;12.90;2.40;;;;;;;10.98;65.62;101052.56;5031924;28;20042;-45
2024/03/23 06:46:04;;;;;;;13.13;2.67;;;;;;;10.95;64.13;101059.50;5032308;28;20495;-47
2024/03/23 06:48:29;;;;;;;12.20;2.10;;;;;;;10.65;65.41;101072.94;5032598;28;20091;-46
2024/03/23 06:50:58;;;;;;;10.48;2.25;;;;;;;11.03;63.90;101054.38;5031988;28;20034;-45
2024/03/23 06:53:24;;;;;;;12.80;2.22;;;;;;;10.63;65.02;101064.19;5031964;28;20030;-45
2024/03/23 06:55:52;;;;;;;11.73;2.50;;;;;;;10.98;63.92;101063.00;5032237;28;20488;-46
2024/03/23 06:58:20;;;;;;;11.52;2.53;;;;;;;11.29;63.54;101071.25;5031809;28;20549;-47
2024/03/23 07:00:46;;;;;;;13.13;2.85;;;;;;;10.58;66.27;101069.34;5031202;28;20041;-50
2024/03/23 07:03:12;;;;;;;12.77;2.83;;;;;;;11.30;62.74;101068.69;5031479;28;20067;-45
2024/03/23 07:05:37;;;;;;;13.20;2.80;;;;;;;10.91;65.04;101057.69;5031280;28;20033;-45
2024/03/23 07:08:03;;;;;;;12.20;2.35;;;;;;;10.93;65.01;101071.63;5031678;28;20037;-44
2024/03/23 07:10:28;;;;;;;19.55;3.05;;;;;;;11.04;64.72;101071.81;5031613;28;20044;-47
2024/03/23 07:12:53;;;;;;;14.30;2.40;;;;;;;10.87;64.32;101064.59;5031008;28;20472;-45
2024/03/23 07:15:19;;;;;;;13.20;2.67;;;;;;;10.84;65.49;101066.28;5031228;28;20052;-46
2024/03/23 07:17:47;;;;;;;9.95;2.50;;;;;;;11.66;62.79;101070.00;5031389;28;20112;-46
2024/03/23 07:20:13;;;;;;;16.35;2.90;;;;;;;11.75;62.09;101071.03;5031921;28;20064;-48
2024/03/23 07:22:38;;;;;;;12.88;2.50;;;;;;;11.74;61.40;101071.00;5031036;28;20119;-45
2024/03/23 07:25:05;;;;;;;13.05;2.50;;;;;;;11.67;60.58;101070.03;5033573;28;20087;-44
2024/03/23 07:27:30;;;;;;;12.32;2.17;;;;;;;11.30;62.19;101063.47;5034334;28;20053;-47
2024/03/23 07:29:56;;;;;;;9.23;2.30;;;;;;;10.86;62.05;101057.59;5031968;28;20033;-45
2024/03/23 07:32:21;;;;;;;11.32;2.20;;;;;;;10.60;64.13;101069.38;5031565;28;20045;-48
2024/03/23 07:34:46;;;;;;;13.25;2.05;;;;;;;10.87;63.64;101074.13;5031743;28;20515;-46
2024/03/23 07:37:12;;;;;;;13.35;2.28;;;;;;;10.90;62.39;101063.78;5031535;28;20033;-46
2024/03/23 07:39:37;;;;;;;10.40;2.17;;;;;;;11.06;62.51;101068.34;5029898;28;20056;-48
2024/03/23 07:42:03;;;;;;;8.02;2.47;;;;;;;10.88;63.63;101065.47;5030862;28;20361;-46
2024/03/23 07:44:28;;;;;;;10.63;2.35;;;;;;;11.68;61.30;101066.56;5030363;28;20124;-49
2024/03/23 07:46:53;;;;;;;11.63;2.10;;;;;;;11.59;61.81;101065.56;5030469;28;20103;-45
2024/03/23 07:49:19;;;;;;;11.30;2.53;;;;;;;12.04;61.32;101063.50;5031035;28;20557;-46
2024/03/23 07:51:44;;;;;;;11.50;2.50;;;;;;;11.55;62.90;101059.44;5030474;28;20033;-46
2024/03/23 07:54:10;;;;;;;11.38;2.60;;;;;;;11.40;61.66;101062.72;5030825;28;20456;-46
2024/03/23 07:56:35;;;;;;;15.68;2.80;;;;;;;11.45;61.53;101057.59;5030358;28;20037;-47
2024/03/23 07:59:03;;;;;;;12.98;2.38;;;;;;;11.90;60.59;101054.66;5030916;28;20029;-45
2024/03/23 08:01:28;;;;;;;14.65;2.55;;;;;;;11.36;62.70;101053.09;5030432;28;20056;-49
2024/03/23 08:03:54;;;;;;;11.10;2.10;;;;;;;11.45;61.60;101059.31;5029697;28;20492;-47
2024/03/23 08:06:20;;;;;;;14.45;2.28;;;;;;;10.74;63.64;101062.63;5030441;28;20040;-46
2024/03/23 08:08:47;;;;;;;12.25;2.17;;;;;;;11.60;61.71;101059.47;5030525;28;20438;-44
2024/03/23 08:11:13;;;;;;;12.63;2.33;;;;;;;11.11;63.13;101061.44;5030648;28;20103;-48
2024/03/23 08:13:40;;;;;;;11.30;2.10;;;;;;;11.37;62.53;101051.38;5029921;28;20033;-45
2024/03/23 08:16:05;;;;;;;15.93;2.80;;;;;;;11.39;63.24;101062.72;5031472;28;20108;-45
2024/03/23 08:18:31;;;;;;;14.50;2.13;;;;;;;11.10;62.96;101070.13;5031023;28;20125;-47
2024/03/23 08:21:00;;;;;;;19.20;2.60;;;;;;;10.70;62.35;101066.06;5030502;28;20037;-47
2024/03/23 08:23:27;;;;;;;8.90;2.13;;;;;;;11.28;61.49;101077.38;5030127;28;20399;-44
2024/03/23 08:25:58;;;;;;;10.20;2.75;;;;;;;11.61;60.69;101061.25;5030242;28;20036;-49
2024/03/23 08:28:23;;;;;;;11.15;2.47;;;;;;;12.17;59.77;101052.34;5033233;28;20407;-47
2024/03/23 08:30:49;;;;;;;15.45;2.65;;;;;;;11.22;61.36;101062.47;5032661;28;20037;-45
2024/03/23 08:33:15;;;;;;;15.90;2.90;;;;;;;11.06;62.31;101057.03;5030882;28;20033;-46
2024/03/23 08:35:41;;;;;;;11.73;2.42;;;;;;;10.87;61.78;101048.94;5031828;28;20032;-44
2024/03/23 08:38:06;;;;;;;12.82;2.28;;;;;;;11.18;61.34;101054.59;5031736;28;20033;-46
2024/03/23 08:40:31;;;;;;;13.48;2.65;;;;;;;11.25;60.23;101061.66;5031127;28;20462;-45
2024/03/23 08:42:56;;;;;;;10.93;2.33;;;;;;;11.81;60.63;101049.34;5029224;28;20447;-46
2024/03/23 08:45:22;;;;;;;9.35;2.38;;;;;;;12.24;58.30;101048.03;5029874;28;20033;-48
2024/03/23 08:47:47;;;;;;;14.15;2.60;;;;;;;11.21;61.14;101052.91;5030553;28;20540;-46
2024/03/23 08:50:12;;;;;;;15.20;2.47;;;;;;;11.04;60.70;101053.53;5031194;28;20075;-47
2024/03/23 08:52:38;;;;;;;11.57;2.38;;;;;;;11.03;61.83;101050.06;5030230;28;20049;-44
2024/03/23 08:55:04;;;;;;;12.75;2.55;;;;;;;11.28;61.10;101052.13;5030236;28;20407;-44
2024/03/23 08:57:29;;;;;;;12.55;2.35;;;;;;;11.25;59.90;101056.44;5030901;28;20068;-46
2024/03/23 08:59:55;;;;;;;15.25;2.55;;;;;;;11.19;59.73;101058.97;5031882;28;20511;-46
2024/03/23 09:02:21;;;;;;;15.68;2.60;;;;;;;11.39;59.58;101053.16;5032021;28;20072;-47
2024/03/23 09:04:46;;;;;;;11.80;2.85;;;;;;;11.38;58.06;101055.75;5030705;28;20068;-48
2024/03/23 09:07:12;;;;;;;13.95;2.30;;;;;;;11.36;57.73;101058.31;5030109;28;20037;-49
2024/03/23 09:09:40;;;;;;;16.23;2.53;;;;;;;11.45;58.76;101065.41;5029850;28;20140;-48
2024/03/23 09:12:06;;;;;;;16.00;2.42;;;;;;;11.85;58.53;101058.06;5029914;28;20044;-47
2024/03/23 09:14:33;;;;;;;10.95;1.92;;;;;;;11.38;57.65;101058.34;5029285;28;20128;-46
2024/03/23 09:16:58;;;;;;;9.40;1.98;;;;;;;11.53;55.49;101060.25;5029398;28;20040;-45
2024/03/23 09:19:24;;;;;;;12.00;2.40;;;;;;;10.97;58.06;101052.56;5032860;28;20124;-46
2024/03/23 09:21:49;;;;;;;15.18;2.38;;;;;;;11.10;58.99;101058.84;5031426;28;20033;-45
2024/03/23 09:24:14;;;;;;;14.70;2.38;;;;;;;11.43;58.20;101066.22;5030012;28;20589;-45
2024/03/23 09:26:40;;;;;;;11.90;1.90;;;;;;;11.29;57.24;101068.66;5030602;28;20034;-46
2024/03/23 09:29:05;;;;;;;10.48;2.38;;;;;;;11.64;57.45;101058.69;5030290;28;20092;-43
2024/03/23 09:31:31;;;;;;;13.38;2.10;;;;;;;11.36;57.64;101054.84;5032374;28;20086;-45
2024/03/23 09:33:58;;;;;;;10.05;1.80;;;;;;;12.39;56.52;101049.91;5030578;28;20045;-45
2024/03/23 09:36:23;;;;;;;7.05;1.90;;;;;;;12.40;53.67;101059.50;5030224;28;20041;-44
2024/03/23 09:38:48;;;;;;;10.02;2.20;;;;;;;12.55;54.18;101043.94;5029476;28;20033;-45
2024/03/23 09:41:14;;;;;;;9.40;2.10;;;;;;;11.90;55.40;101048.53;5029691;28;20510;-45
2024/03/23 09:43:40;;;;;;;7.93;1.90;;;;;;;11.43;56.68;101051.44;5028479;28;20052;-44
2024/03/23 09:46:05;;;;;;;10.88;1.90;;;;;;;11.69;57.20;101057.88;5029379;28;20025;-47
2024/03/23 09:48:31;;;;;;;14.43;2.42;;;;;;;11.51;57.43;101051.56;5030741;28;20172;-44
2024/03/23 09:50:56;;;;;;;10.32;2.05;;;;;;;11.64;57.48;101064.78;5031813;28;20030;-44
2024/03/23 09:53:22;;;;;;;14.00;2.38;;;;;;;11.57;58.38;101060.34;5031770;28;20300;-44
2024/03/23 09:55:48;;;;;;;11.68;2.20;;;;;;;11.72;59.45;101057.91;5031787;28;20034;-45
2024/03/23 09:58:18;;;;;;;8.95;1.77;;;;;;;11.85;58.73;101058.06;5031807;28;20037;-44
2024/03/23 10:00:44;;;;;;;12.18;2.20;;;;;;;11.87;59.57;101052.00;5032236;28;20037;-46
2024/03/23 10:03:11;;;;;;;10.55;2.35;;;;;;;11.75;58.05;101054.50;5032891;28;20524;-50
2024/03/23 10:05:36;;;;;;;10.45;2.00;;;;;;;11.48;57.96;101055.00;5032421;28;20069;-46
2024/03/23 10:08:14;;;;;;;12.02;2.20;;;;;;;11.16;58.78;101048.50;5033365;28;20060;-44
2024/03/23 10:10:42;;;;;;;14.32;2.40;;;;;;;11.31;57.96;101057.41;5032453;28;20037;-49
2024/03/23 10:13:08;;;;;;;9.82;1.90;;;;;;;11.49;56.69;101064.59;5033464;28;20096;-45
2024/03/23 10:15:35;;;;;;;7.63;1.73;;;;;;;11.29;57.82;101053.88;5033478;28;20048;-45
2024/03/23 10:18:21;;;;;;;7.78;1.83;;;;;;;11.54;58.54;101064.63;5035179;28;20029;-43
2024/03/23 10:21:05;;;;;;;14.15;2.00;;;;;;;10.77;59.28;101046.19;5034863;28;20033;-46
2024/03/23 10:23:30;;;;;;;11.15;2.08;;;;;;;10.87;58.03;101059.38;5034269;28;20045;-45
2024/03/23 10:26:22;;;;;;;10.38;1.90;;;;;;;11.23;58.66;101051.19;5035380;28;20052;-46
2024/03/23 10:29:07;;;;;;;13.88;2.25;;;;;;;11.47;55.81;101053.22;5034535;28;20045;-45
2024/03/23 10:31:33;;;;;;;14.90;1.95;;;;;;;11.36;56.10;101050.50;5033519;28;20034;-45
2024/03/23 10:34:00;;;;;;;11.10;1.80;;;;;;;11.75;53.58;101050.16;5015499;28;20129;-48
2024/03/23 10:36:26;;;;;;;13.60;2.05;;;;;;;11.40;55.00;101044.44;5033721;28;20042;-46
2024/03/23 10:38:52;;;;;;;10.63;2.10;;;;;;;11.13;56.49;101051.03;5033319;28;20034;-45
2024/03/23 10:41:18;;;;;;;13.13;2.20;;;;;;;11.12;57.53;101049.28;5033357;28;20038;-45
2024/03/23 10:43:48;;;;;;;9.05;2.00;;;;;;;10.99;58.12;101043.91;5032149;28;20036;-45
2024/03/23 10:46:14;;;;;;;12.13;2.35;;;;;;;10.98;56.60;101063.00;5032693;28;20030;-44
2024/03/23 10:48:39;;;;;;;9.60;2.15;;;;;;;11.12;56.52;101037.13;5032532;28;20036;-49
2024/03/23 10:51:09;;;;;;;13.85;2.15;;;;;;;11.32;55.99;101045.22;5033577;28;20041;-48
2024/03/23 10:53:36;;;;;;;10.35;2.00;;;;;;;11.07;57.24;101036.19;5031260;28;20037;-45
2024/03/23 10:56:02;;;;;;;10.82;1.98;;;;;;;10.74;58.10;101043.50;5033102;28;20042;-46
2024/03/23 10:58:32;;;;;;;11.43;2.10;;;;;;;10.78;58.82;101024.47;5033196;28;20124;-46
2024/03/23 11:00:58;;;;;;;12.98;2.13;;;;;;;11.08;58.78;101031.84;5024275;28;20037;-46
2024/03/23 11:03:30;;;;;;;15.95;2.25;;;;;;;12.04;56.13;101029.53;5031396;28;20038;-44
2024/03/23 11:05:56;;;;;;;11.93;1.90;;;;;;;11.78;54.95;101042.31;5031657;28;20120;-44
2024/03/23 11:08:42;;;;;;;11.55;2.30;;;;;;;11.46;54.17;101037.56;5014365;28;20120;-45
2024/03/23 11:11:22;;;;;;;10.52;2.20;;;;;;;12.32;54.08;101029.81;5031954;28;20037;-50
2024/03/23 11:13:50;;;;;;;11.52;2.10;;;;;;;11.89;53.94;101018.06;5030564;28;20044;-48
2024/03/23 11:16:28;;;;;;;9.77;1.90;;;;;;;11.67;54.09;101030.84;5031895;28;20040;-45